sensor_id;sensor_type;location;lat;lon;timestamp;P1;durP1;ratioP1;P2;durP2;ratioP2
359;SDS011;168;48.872;9.226;2023-04-16T00:02:20;23.00;;;17.83;;
359;SDS011;168;48.872;9.226;2023-04-16T00:04:48;26.97;;;21.33;;
359;SDS011;168;48.872;9.226;2023-04-16T00:07:16;22.97;;;19.40;;
359;SDS011;168;48.872;9.226;2023-04-16T00:09:44;28.87;;;20.90;;
359;SDS011;168;48.872;9.226;2023-04-16T00:12:12;30.57;;;22.50;;
359;SDS011;168;48.872;9.226;2023-04-16T00:14:40;29.10;;;21.90;;
359;SDS011;168;48.872;9.226;2023-04-16T00:17:08;28.77;;;21.40;;
359;SDS011;168;48.872;9.226;2023-04-16T00:19:35;26.33;;;20.27;;
359;SDS011;168;48.872;9.226;2023-04-16T00:22:03;27.80;;;19.83;;
359;SDS011;168;48.872;9.226;2023-04-16T00:24:30;24.30;;;19.50;;
359;SDS011;168;48.872;9.226;2023-04-16T00:26:59;29.60;;;22.00;;
359;SDS011;168;48.872;9.226;2023-04-16T00:29:26;25.17;;;20.23;;
359;SDS011;168;48.872;9.226;2023-04-16T00:31:55;23.57;;;18.37;;
359;SDS011;168;48.872;9.226;2023-04-16T00:34:22;23.87;;;18.43;;
359;SDS011;168;48.872;9.226;2023-04-16T00:36:50;27.50;;;19.77;;
359;SDS011;168;48.872;9.226;2023-04-16T00:39:17;23.23;;;18.30;;
359;SDS011;168;48.872;9.226;2023-04-16T00:41:45;26.77;;;18.60;;
359;SDS011;168;48.872;9.226;2023-04-16T00:44:15;25.57;;;19.37;;
359;SDS011;168;48.872;9.226;2023-04-16T00:46:42;21.10;;;16.60;;
359;SDS011;168;48.872;9.226;2023-04-16T00:49:10;24.83;;;19.77;;
359;SDS011;168;48.872;9.226;2023-04-16T00:51:38;23.67;;;18.70;;
359;SDS011;168;48.872;9.226;2023-04-16T00:54:05;28.03;;;19.90;;
359;SDS011;168;48.872;9.226;2023-04-16T00:56:33;23.83;;;18.93;;
359;SDS011;168;48.872;9.226;2023-04-16T00:59:01;23.83;;;18.30;;
359;SDS011;168;48.872;9.226;2023-04-16T01:01:29;24.70;;;18.90;;
359;SDS011;168;48.872;9.226;2023-04-16T01:03:57;24.60;;;19.80;;
359;SDS011;168;48.872;9.226;2023-04-16T01:06:24;22.70;;;16.10;;
359;SDS011;168;48.872;9.226;2023-04-16T01:08:52;23.30;;;19.30;;
359;SDS011;168;48.872;9.226;2023-04-16T01:11:19;22.13;;;17.50;;
359;SDS011;168;48.872;9.226;2023-04-16T01:13:47;23.10;;;17.60;;
359;SDS011;168;48.872;9.226;2023-04-16T01:16:14;19.33;;;16.80;;
359;SDS011;168;48.872;9.226;2023-04-16T01:18:42;24.63;;;20.30;;
359;SDS011;168;48.872;9.226;2023-04-16T01:21:11;23.03;;;18.33;;
359;SDS011;168;48.872;9.226;2023-04-16T01:23:39;23.17;;;18.80;;
359;SDS011;168;48.872;9.226;2023-04-16T01:26:06;23.87;;;19.20;;
359;SDS011;168;48.872;9.226;2023-04-16T01:28:33;23.10;;;18.50;;
359;SDS011;168;48.872;9.226;2023-04-16T01:31:01;20.67;;;18.10;;
359;SDS011;168;48.872;9.226;2023-04-16T01:33:28;16.70;;;14.10;;
359;SDS011;168;48.872;9.226;2023-04-16T01:35:55;19.77;;;16.30;;
359;SDS011;168;48.872;9.226;2023-04-16T01:38:24;20.07;;;16.50;;
359;SDS011;168;48.872;9.226;2023-04-16T01:40:54;22.17;;;17.23;;
359;SDS011;168;48.872;9.226;2023-04-16T01:43:22;18.90;;;15.37;;
359;SDS011;168;48.872;9.226;2023-04-16T01:45:49;17.30;;;15.20;;
359;SDS011;168;48.872;9.226;2023-04-16T01:48:17;19.73;;;15.50;;
359;SDS011;168;48.872;9.226;2023-04-16T01:50:44;15.53;;;13.43;;
359;SDS011;168;48.872;9.226;2023-04-16T01:53:12;19.30;;;15.27;;
359;SDS011;168;48.872;9.226;2023-04-16T01:55:40;18.00;;;14.50;;
359;SDS011;168;48.872;9.226;2023-04-16T01:58:08;18.10;;;14.40;;
359;SDS011;168;48.872;9.226;2023-04-16T02:00:38;19.60;;;15.90;;
359;SDS011;168;48.872;9.226;2023-04-16T02:03:05;24.47;;;16.27;;
359;SDS011;168;48.872;9.226;2023-04-16T02:05:33;24.23;;;19.10;;
359;SDS011;168;48.872;9.226;2023-04-16T02:08:00;20.60;;;17.60;;
359;SDS011;168;48.872;9.226;2023-04-16T02:10:28;23.30;;;17.17;;
359;SDS011;168;48.872;9.226;2023-04-16T02:12:56;27.53;;;18.67;;
359;SDS011;168;48.872;9.226;2023-04-16T02:15:24;23.13;;;16.57;;
359;SDS011;168;48.872;9.226;2023-04-16T02:17:51;23.47;;;17.47;;
359;SDS011;168;48.872;9.226;2023-04-16T02:20:21;21.90;;;16.47;;
359;SDS011;168;48.872;9.226;2023-04-16T02:22:48;22.13;;;16.87;;
359;SDS011;168;48.872;9.226;2023-04-16T02:25:16;25.20;;;18.20;;
359;SDS011;168;48.872;9.226;2023-04-16T02:27:43;22.77;;;18.00;;
359;SDS011;168;48.872;9.226;2023-04-16T02:30:12;17.60;;;14.73;;
359;SDS011;168;48.872;9.226;2023-04-16T02:32:39;23.77;;;17.07;;
359;SDS011;168;48.872;9.226;2023-04-16T02:35:07;22.33;;;18.07;;
359;SDS011;168;48.872;9.226;2023-04-16T02:37:34;26.87;;;19.13;;
359;SDS011;168;48.872;9.226;2023-04-16T02:40:01;22.63;;;18.43;;
359;SDS011;168;48.872;9.226;2023-04-16T02:42:29;22.97;;;17.63;;
359;SDS011;168;48.872;9.226;2023-04-16T02:44:56;22.73;;;19.10;;
359;SDS011;168;48.872;9.226;2023-04-16T02:47:25;25.90;;;19.80;;
359;SDS011;168;48.872;9.226;2023-04-16T02:49:52;23.63;;;18.00;;
359;SDS011;168;48.872;9.226;2023-04-16T02:52:19;23.00;;;18.77;;
359;SDS011;168;48.872;9.226;2023-04-16T02:54:47;22.73;;;18.57;;
359;SDS011;168;48.872;9.226;2023-04-16T02:57:14;24.20;;;18.60;;
359;SDS011;168;48.872;9.226;2023-04-16T02:59:42;28.10;;;19.90;;
359;SDS011;168;48.872;9.226;2023-04-16T03:02:09;24.43;;;19.10;;
359;SDS011;168;48.872;9.226;2023-04-16T03:04:37;24.80;;;19.30;;
359;SDS011;168;48.872;9.226;2023-04-16T03:07:05;22.23;;;16.90;;
359;SDS011;168;48.872;9.226;2023-04-16T03:09:33;24.77;;;16.80;;
359;SDS011;168;48.872;9.226;2023-04-16T03:12:01;27.23;;;18.80;;
359;SDS011;168;48.872;9.226;2023-04-16T03:14:28;23.30;;;17.87;;
359;SDS011;168;48.872;9.226;2023-04-16T03:16:55;25.70;;;19.33;;
359;SDS011;168;48.872;9.226;2023-04-16T03:19:23;23.00;;;18.80;;
359;SDS011;168;48.872;9.226;2023-04-16T03:21:52;25.30;;;19.70;;
359;SDS011;168;48.872;9.226;2023-04-16T03:24:19;24.27;;;18.57;;
359;SDS011;168;48.872;9.226;2023-04-16T03:26:46;24.20;;;17.60;;
359;SDS011;168;48.872;9.226;2023-04-16T03:29:14;22.03;;;16.17;;
359;SDS011;168;48.872;9.226;2023-04-16T03:31:41;20.43;;;16.37;;
359;SDS011;168;48.872;9.226;2023-04-16T03:34:08;26.93;;;18.47;;
359;SDS011;168;48.872;9.226;2023-04-16T03:36:35;22.07;;;16.77;;
359;SDS011;168;48.872;9.226;2023-04-16T03:39:04;24.00;;;17.03;;
359;SDS011;168;48.872;9.226;2023-04-16T03:41:31;23.40;;;17.07;;
359;SDS011;168;48.872;9.226;2023-04-16T03:43:59;28.00;;;17.27;;
359;SDS011;168;48.872;9.226;2023-04-16T03:46:26;24.67;;;19.00;;
359;SDS011;168;48.872;9.226;2023-04-16T03:48:53;22.83;;;16.60;;
359;SDS011;168;48.872;9.226;2023-04-16T03:51:21;22.83;;;18.20;;
359;SDS011;168;48.872;9.226;2023-04-16T03:53:48;26.67;;;19.87;;
359;SDS011;168;48.872;9.226;2023-04-16T03:56:17;27.87;;;19.57;;
359;SDS011;168;48.872;9.226;2023-04-16T03:58:44;30.00;;;20.67;;
359;SDS011;168;48.872;9.226;2023-04-16T04:01:11;27.97;;;19.37;;
359;SDS011;168;48.872;9.226;2023-04-16T04:03:39;31.30;;;21.20;;
359;SDS011;168;48.872;9.226;2023-04-16T04:06:08;33.33;;;21.40;;
359;SDS011;168;48.872;9.226;2023-04-16T04:08:36;29.10;;;19.80;;
359;SDS011;168;48.872;9.226;2023-04-16T04:11:03;29.93;;;21.37;;
359;SDS011;168;48.872;9.226;2023-04-16T04:13:32;28.77;;;20.50;;
359;SDS011;168;48.872;9.226;2023-04-16T04:15:59;29.67;;;19.90;;
359;SDS011;168;48.872;9.226;2023-04-16T04:18:26;34.00;;;23.30;;
359;SDS011;168;48.872;9.226;2023-04-16T04:20:54;28.17;;;19.90;;
359;SDS011;168;48.872;9.226;2023-04-16T04:23:22;31.23;;;20.83;;
359;SDS011;168;48.872;9.226;2023-04-16T04:25:49;27.83;;;18.93;;
359;SDS011;168;48.872;9.226;2023-04-16T04:28:17;23.67;;;18.30;;
359;SDS011;168;48.872;9.226;2023-04-16T04:30:45;29.60;;;19.27;;
359;SDS011;168;48.872;9.226;2023-04-16T04:33:13;29.20;;;20.90;;
359;SDS011;168;48.872;9.226;2023-04-16T04:36:01;29.97;;;20.07;;
359;SDS011;168;48.872;9.226;2023-04-16T04:38:34;31.17;;;19.07;;
359;SDS011;168;48.872;9.226;2023-04-16T04:41:01;31.40;;;20.43;;
359;SDS011;168;48.872;9.226;2023-04-16T04:43:29;31.17;;;19.93;;
359;SDS011;168;48.872;9.226;2023-04-16T04:45:57;28.97;;;21.40;;
359;SDS011;168;48.872;9.226;2023-04-16T04:48:24;31.53;;;21.40;;
359;SDS011;168;48.872;9.226;2023-04-16T04:50:52;30.57;;;21.67;;
359;SDS011;168;48.872;9.226;2023-04-16T04:53:19;29.13;;;19.60;;
359;SDS011;168;48.872;9.226;2023-04-16T04:55:47;29.90;;;20.27;;
359;SDS011;168;48.872;9.226;2023-04-16T04:58:14;22.53;;;15.97;;
359;SDS011;168;48.872;9.226;2023-04-16T05:00:41;36.13;;;22.53;;
359;SDS011;168;48.872;9.226;2023-04-16T05:03:10;36.73;;;21.70;;
359;SDS011;168;48.872;9.226;2023-04-16T05:05:38;35.80;;;23.47;;
359;SDS011;168;48.872;9.226;2023-04-16T05:08:10;41.30;;;25.37;;
359;SDS011;168;48.872;9.226;2023-04-16T05:10:37;39.90;;;24.57;;
359;SDS011;168;48.872;9.226;2023-04-16T05:13:05;37.90;;;23.10;;
359;SDS011;168;48.872;9.226;2023-04-16T05:15:32;37.27;;;23.13;;
359;SDS011;168;48.872;9.226;2023-04-16T05:18:00;40.10;;;24.33;;
359;SDS011;168;48.872;9.226;2023-04-16T05:20:29;40.27;;;24.57;;
359;SDS011;168;48.872;9.226;2023-04-16T05:22:56;40.40;;;24.43;;
359;SDS011;168;48.872;9.226;2023-04-16T05:25:23;40.63;;;27.07;;
359;SDS011;168;48.872;9.226;2023-04-16T05:27:51;47.80;;;26.60;;
359;SDS011;168;48.872;9.226;2023-04-16T05:30:18;47.40;;;29.13;;
359;SDS011;168;48.872;9.226;2023-04-16T05:32:45;49.77;;;29.33;;
359;SDS011;168;48.872;9.226;2023-04-16T05:35:13;56.47;;;30.17;;
359;SDS011;168;48.872;9.226;2023-04-16T05:37:41;50.60;;;29.17;;
359;SDS011;168;48.872;9.226;2023-04-16T05:40:11;52.50;;;31.50;;
359;SDS011;168;48.872;9.226;2023-04-16T05:42:39;55.13;;;28.50;;
359;SDS011;168;48.872;9.226;2023-04-16T05:45:07;54.10;;;30.63;;
359;SDS011;168;48.872;9.226;2023-04-16T05:47:35;59.47;;;32.40;;
359;SDS011;168;48.872;9.226;2023-04-16T05:50:02;54.90;;;33.30;;
359;SDS011;168;48.872;9.226;2023-04-16T05:52:30;60.13;;;33.83;;
359;SDS011;168;48.872;9.226;2023-04-16T05:54:58;57.53;;;32.83;;
359;SDS011;168;48.872;9.226;2023-04-16T05:57:26;62.90;;;31.83;;
359;SDS011;168;48.872;9.226;2023-04-16T05:59:53;60.47;;;34.07;;
359;SDS011;168;48.872;9.226;2023-04-16T06:02:20;60.67;;;35.23;;
359;SDS011;168;48.872;9.226;2023-04-16T06:04:48;57.97;;;31.10;;
359;SDS011;168;48.872;9.226;2023-04-16T06:07:15;56.50;;;31.70;;
359;SDS011;168;48.872;9.226;2023-04-16T06:09:43;59.10;;;32.50;;
359;SDS011;168;48.872;9.226;2023-04-16T06:12:12;53.83;;;29.83;;
359;SDS011;168;48.872;9.226;2023-04-16T06:14:39;52.47;;;29.80;;
359;SDS011;168;48.872;9.226;2023-04-16T06:17:06;55.60;;;31.67;;
359;SDS011;168;48.872;9.226;2023-04-16T06:19:34;52.67;;;31.00;;
359;SDS011;168;48.872;9.226;2023-04-16T06:22:01;55.67;;;32.93;;
359;SDS011;168;48.872;9.226;2023-04-16T06:24:30;59.57;;;32.30;;
359;SDS011;168;48.872;9.226;2023-04-16T06:26:58;55.33;;;31.30;;
359;SDS011;168;48.872;9.226;2023-04-16T06:29:27;55.70;;;33.23;;
359;SDS011;168;48.872;9.226;2023-04-16T06:31:54;50.00;;;30.07;;
359;SDS011;168;48.872;9.226;2023-04-16T06:34:22;50.40;;;28.70;;
359;SDS011;168;48.872;9.226;2023-04-16T06:36:49;48.00;;;29.60;;
359;SDS011;168;48.872;9.226;2023-04-16T06:39:17;50.03;;;30.60;;
359;SDS011;168;48.872;9.226;2023-04-16T06:41:46;47.53;;;30.80;;
359;SDS011;168;48.872;9.226;2023-04-16T06:44:13;44.53;;;28.90;;
359;SDS011;168;48.872;9.226;2023-04-16T06:46:42;45.33;;;27.67;;
359;SDS011;168;48.872;9.226;2023-04-16T06:49:10;41.17;;;27.33;;
359;SDS011;168;48.872;9.226;2023-04-16T06:51:37;42.80;;;30.03;;
359;SDS011;168;48.872;9.226;2023-04-16T06:54:04;45.90;;;29.07;;
359;SDS011;168;48.872;9.226;2023-04-16T06:56:33;40.10;;;26.23;;
359;SDS011;168;48.872;9.226;2023-04-16T06:59:01;38.27;;;24.37;;
359;SDS011;168;48.872;9.226;2023-04-16T07:01:29;35.17;;;22.40;;
359;SDS011;168;48.872;9.226;2023-04-16T07:03:58;39.07;;;26.80;;
359;SDS011;168;48.872;9.226;2023-04-16T07:06:25;46.70;;;28.50;;
359;SDS011;168;48.872;9.226;2023-04-16T07:08:52;51.63;;;29.33;;
359;SDS011;168;48.872;9.226;2023-04-16T07:11:20;41.40;;;26.67;;
359;SDS011;168;48.872;9.226;2023-04-16T07:13:47;41.50;;;25.13;;
359;SDS011;168;48.872;9.226;2023-04-16T07:16:16;42.20;;;27.70;;
359;SDS011;168;48.872;9.226;2023-04-16T07:18:43;37.10;;;25.50;;
359;SDS011;168;48.872;9.226;2023-04-16T07:21:12;41.77;;;26.90;;
359;SDS011;168;48.872;9.226;2023-04-16T07:23:40;39.30;;;26.27;;
359;SDS011;168;48.872;9.226;2023-04-16T07:26:07;35.23;;;25.43;;
359;SDS011;168;48.872;9.226;2023-04-16T07:28:36;30.77;;;20.27;;
359;SDS011;168;48.872;9.226;2023-04-16T07:31:03;35.07;;;25.70;;
359;SDS011;168;48.872;9.226;2023-04-16T07:33:31;36.63;;;25.27;;
359;SDS011;168;48.872;9.226;2023-04-16T07:35:58;34.83;;;24.10;;
359;SDS011;168;48.872;9.226;2023-04-16T07:38:27;40.07;;;26.30;;
359;SDS011;168;48.872;9.226;2023-04-16T07:40:54;33.03;;;23.70;;
359;SDS011;168;48.872;9.226;2023-04-16T07:43:22;30.27;;;23.40;;
359;SDS011;168;48.872;9.226;2023-04-16T07:45:49;33.60;;;21.50;;
359;SDS011;168;48.872;9.226;2023-04-16T07:48:17;34.50;;;23.40;;
359;SDS011;168;48.872;9.226;2023-04-16T07:50:44;33.63;;;23.87;;
359;SDS011;168;48.872;9.226;2023-04-16T07:53:12;33.53;;;24.57;;
359;SDS011;168;48.872;9.226;2023-04-16T07:55:41;35.37;;;24.67;;
359;SDS011;168;48.872;9.226;2023-04-16T07:58:09;33.37;;;24.30;;
359;SDS011;168;48.872;9.226;2023-04-16T08:00:36;34.20;;;20.40;;
359;SDS011;168;48.872;9.226;2023-04-16T08:03:04;27.80;;;19.27;;
359;SDS011;168;48.872;9.226;2023-04-16T08:05:31;29.13;;;20.77;;
359;SDS011;168;48.872;9.226;2023-04-16T08:07:58;29.50;;;21.70;;
359;SDS011;168;48.872;9.226;2023-04-16T08:10:26;30.57;;;19.97;;
359;SDS011;168;48.872;9.226;2023-04-16T08:12:56;26.23;;;20.20;;
359;SDS011;168;48.872;9.226;2023-04-16T08:15:26;25.63;;;18.37;;
359;SDS011;168;48.872;9.226;2023-04-16T08:17:53;30.40;;;20.10;;
359;SDS011;168;48.872;9.226;2023-04-16T08:20:21;26.53;;;19.87;;
359;SDS011;168;48.872;9.226;2023-04-16T08:22:48;21.27;;;17.40;;
359;SDS011;168;48.872;9.226;2023-04-16T08:25:15;23.87;;;19.53;;
359;SDS011;168;48.872;9.226;2023-04-16T08:27:43;23.60;;;19.90;;
359;SDS011;168;48.872;9.226;2023-04-16T08:30:12;25.17;;;20.07;;
359;SDS011;168;48.872;9.226;2023-04-16T08:32:41;20.07;;;16.63;;
359;SDS011;168;48.872;9.226;2023-04-16T08:35:08;24.73;;;19.60;;
359;SDS011;168;48.872;9.226;2023-04-16T08:37:35;24.10;;;17.40;;
359;SDS011;168;48.872;9.226;2023-04-16T08:40:03;26.00;;;19.20;;
359;SDS011;168;48.872;9.226;2023-04-16T08:42:32;26.70;;;20.77;;
359;SDS011;168;48.872;9.226;2023-04-16T08:45:03;26.50;;;18.80;;
359;SDS011;168;48.872;9.226;2023-04-16T08:47:35;29.57;;;21.27;;
359;SDS011;168;48.872;9.226;2023-04-16T08:50:03;21.77;;;16.30;;
359;SDS011;168;48.872;9.226;2023-04-16T08:52:31;25.97;;;20.60;;
359;SDS011;168;48.872;9.226;2023-04-16T08:55:02;23.67;;;18.97;;
359;SDS011;168;48.872;9.226;2023-04-16T08:57:36;24.10;;;19.17;;
359;SDS011;168;48.872;9.226;2023-04-16T09:00:07;22.57;;;18.13;;
359;SDS011;168;48.872;9.226;2023-04-16T09:02:38;23.07;;;18.93;;
359;SDS011;168;48.872;9.226;2023-04-16T09:05:05;21.77;;;17.70;;
359;SDS011;168;48.872;9.226;2023-04-16T09:07:34;19.70;;;16.90;;
359;SDS011;168;48.872;9.226;2023-04-16T09:10:03;22.30;;;18.27;;
359;SDS011;168;48.872;9.226;2023-04-16T09:12:34;20.03;;;17.50;;
359;SDS011;168;48.872;9.226;2023-04-16T09:15:01;20.97;;;17.73;;
359;SDS011;168;48.872;9.226;2023-04-16T09:17:29;22.73;;;18.37;;
359;SDS011;168;48.872;9.226;2023-04-16T09:19:58;20.37;;;17.70;;
359;SDS011;168;48.872;9.226;2023-04-16T09:22:25;22.53;;;18.73;;
359;SDS011;168;48.872;9.226;2023-04-16T09:24:53;25.87;;;19.50;;
359;SDS011;168;48.872;9.226;2023-04-16T09:27:20;24.00;;;19.33;;
359;SDS011;168;48.872;9.226;2023-04-16T09:29:48;23.10;;;18.60;;
359;SDS011;168;48.872;9.226;2023-04-16T09:32:16;25.08;;;20.88;;
359;SDS011;168;48.872;9.226;2023-04-16T09:34:53;23.80;;;20.20;;
359;SDS011;168;48.872;9.226;2023-04-16T09:37:25;20.47;;;17.00;;
359;SDS011;168;48.872;9.226;2023-04-16T09:39:54;24.77;;;19.63;;
359;SDS011;168;48.872;9.226;2023-04-16T09:42:24;31.00;;;21.97;;
359;SDS011;168;48.872;9.226;2023-04-16T09:44:53;22.70;;;18.77;;
359;SDS011;168;48.872;9.226;2023-04-16T09:47:21;23.00;;;18.73;;
359;SDS011;168;48.872;9.226;2023-04-16T09:49:49;22.77;;;18.83;;
359;SDS011;168;48.872;9.226;2023-04-16T09:52:17;24.60;;;19.77;;
359;SDS011;168;48.872;9.226;2023-04-16T09:54:47;25.00;;;18.60;;
359;SDS011;168;48.872;9.226;2023-04-16T09:57:20;25.87;;;20.50;;
359;SDS011;168;48.872;9.226;2023-04-16T09:59:51;25.70;;;20.47;;
359;SDS011;168;48.872;9.226;2023-04-16T10:02:19;24.33;;;19.47;;
359;SDS011;168;48.872;9.226;2023-04-16T10:04:48;23.40;;;19.73;;
359;SDS011;168;48.872;9.226;2023-04-16T10:07:16;26.30;;;18.87;;
359;SDS011;168;48.872;9.226;2023-04-16T10:09:45;23.43;;;17.43;;
359;SDS011;168;48.872;9.226;2023-04-16T10:12:14;26.50;;;18.93;;
359;SDS011;168;48.872;9.226;2023-04-16T10:14:42;29.97;;;19.50;;
359;SDS011;168;48.872;9.226;2023-04-16T10:17:09;28.03;;;20.33;;
359;SDS011;168;48.872;9.226;2023-04-16T10:19:37;26.70;;;20.63;;
359;SDS011;168;48.872;9.226;2023-04-16T10:22:05;34.27;;;21.13;;
359;SDS011;168;48.872;9.226;2023-04-16T10:24:32;26.67;;;18.63;;
359;SDS011;168;48.872;9.226;2023-04-16T10:27:00;26.30;;;19.57;;
359;SDS011;168;48.872;9.226;2023-04-16T10:29:29;31.93;;;20.20;;
359;SDS011;168;48.872;9.226;2023-04-16T10:31:57;24.77;;;16.70;;
359;SDS011;168;48.872;9.226;2023-04-16T10:34:26;29.87;;;22.27;;
359;SDS011;168;48.872;9.226;2023-04-16T10:36:55;29.73;;;19.20;;
359;SDS011;168;48.872;9.226;2023-04-16T10:39:23;27.37;;;19.00;;
359;SDS011;168;48.872;9.226;2023-04-16T10:42:05;32.53;;;21.20;;
359;SDS011;168;48.872;9.226;2023-04-16T10:44:35;27.57;;;20.67;;
359;SDS011;168;48.872;9.226;2023-04-16T10:47:08;22.53;;;18.40;;
359;SDS011;168;48.872;9.226;2023-04-16T10:49:37;23.60;;;18.80;;
359;SDS011;168;48.872;9.226;2023-04-16T10:52:09;24.90;;;17.97;;
359;SDS011;168;48.872;9.226;2023-04-16T10:54:38;27.80;;;18.60;;
359;SDS011;168;48.872;9.226;2023-04-16T10:57:07;26.27;;;19.13;;
359;SDS011;168;48.872;9.226;2023-04-16T10:59:37;25.30;;;17.10;;
359;SDS011;168;48.872;9.226;2023-04-16T11:02:08;26.47;;;17.63;;
359;SDS011;168;48.872;9.226;2023-04-16T11:04:38;22.70;;;17.43;;
359;SDS011;168;48.872;9.226;2023-04-16T11:07:14;24.97;;;17.47;;
359;SDS011;168;48.872;9.226;2023-04-16T11:09:48;22.10;;;15.23;;
359;SDS011;168;48.872;9.226;2023-04-16T11:12:18;20.20;;;14.03;;
359;SDS011;168;48.872;9.226;2023-04-16T11:14:49;18.10;;;12.60;;
359;SDS011;168;48.872;9.226;2023-04-16T11:17:17;18.27;;;14.00;;
359;SDS011;168;48.872;9.226;2023-04-16T11:19:45;18.30;;;13.87;;
359;SDS011;168;48.872;9.226;2023-04-16T11:22:14;14.70;;;11.87;;
359;SDS011;168;48.872;9.226;2023-04-16T11:24:43;17.50;;;13.27;;
359;SDS011;168;48.872;9.226;2023-04-16T11:27:11;20.73;;;13.77;;
359;SDS011;168;48.872;9.226;2023-04-16T11:29:39;19.57;;;14.63;;
359;SDS011;168;48.872;9.226;2023-04-16T11:32:08;14.70;;;12.30;;
359;SDS011;168;48.872;9.226;2023-04-16T11:34:42;15.40;;;12.13;;
359;SDS011;168;48.872;9.226;2023-04-16T11:37:11;17.47;;;12.83;;
359;SDS011;168;48.872;9.226;2023-04-16T11:39:51;14.97;;;11.67;;
359;SDS011;168;48.872;9.226;2023-04-16T11:42:19;12.97;;;10.73;;
359;SDS011;168;48.872;9.226;2023-04-16T11:44:51;13.00;;;10.97;;
359;SDS011;168;48.872;9.226;2023-04-16T11:47:21;13.17;;;10.47;;
359;SDS011;168;48.872;9.226;2023-04-16T11:49:49;16.00;;;11.97;;
359;SDS011;168;48.872;9.226;2023-04-16T11:52:26;18.70;;;13.97;;
359;SDS011;168;48.872;9.226;2023-04-16T11:54:54;17.20;;;14.60;;
359;SDS011;168;48.872;9.226;2023-04-16T11:57:25;16.70;;;12.77;;
359;SDS011;168;48.872;9.226;2023-04-16T11:59:53;15.00;;;12.10;;
359;SDS011;168;48.872;9.226;2023-04-16T12:02:35;14.60;;;12.63;;
359;SDS011;168;48.872;9.226;2023-04-16T12:05:04;12.50;;;10.80;;
359;SDS011;168;48.872;9.226;2023-04-16T12:07:42;14.03;;;11.73;;
359;SDS011;168;48.872;9.226;2023-04-16T12:10:10;13.90;;;10.50;;
359;SDS011;168;48.872;9.226;2023-04-16T12:12:38;12.03;;;10.60;;
359;SDS011;168;48.872;9.226;2023-04-16T12:15:07;11.37;;;10.27;;
359;SDS011;168;48.872;9.226;2023-04-16T12:17:36;10.97;;;9.70;;
359;SDS011;168;48.872;9.226;2023-04-16T12:20:07;13.47;;;11.30;;
359;SDS011;168;48.872;9.226;2023-04-16T12:22:36;13.40;;;10.97;;
359;SDS011;168;48.872;9.226;2023-04-16T12:25:05;16.50;;;10.53;;
359;SDS011;168;48.872;9.226;2023-04-16T12:27:43;11.70;;;10.50;;
359;SDS011;168;48.872;9.226;2023-04-16T12:30:12;11.87;;;9.70;;
359;SDS011;168;48.872;9.226;2023-04-16T12:32:42;11.67;;;10.47;;
359;SDS011;168;48.872;9.226;2023-04-16T12:35:13;12.90;;;8.80;;
359;SDS011;168;48.872;9.226;2023-04-16T12:37:54;10.80;;;9.10;;
359;SDS011;168;48.872;9.226;2023-04-16T12:40:21;11.23;;;10.00;;
359;SDS011;168;48.872;9.226;2023-04-16T12:42:49;11.30;;;9.47;;
359;SDS011;168;48.872;9.226;2023-04-16T12:45:16;12.13;;;8.90;;
359;SDS011;168;48.872;9.226;2023-04-16T12:47:45;10.03;;;9.03;;
359;SDS011;168;48.872;9.226;2023-04-16T12:50:13;10.97;;;9.80;;
359;SDS011;168;48.872;9.226;2023-04-16T12:52:40;11.87;;;9.47;;
359;SDS011;168;48.872;9.226;2023-04-16T12:55:08;12.30;;;9.23;;
359;SDS011;168;48.872;9.226;2023-04-16T12:57:36;12.97;;;9.47;;
359;SDS011;168;48.872;9.226;2023-04-16T13:00:03;11.77;;;10.23;;
359;SDS011;168;48.872;9.226;2023-04-16T13:02:32;10.73;;;9.67;;
359;SDS011;168;48.872;9.226;2023-04-16T13:05:01;11.87;;;9.80;;
359;SDS011;168;48.872;9.226;2023-04-16T13:07:29;10.00;;;9.00;;
359;SDS011;168;48.872;9.226;2023-04-16T13:09:56;11.33;;;10.13;;
359;SDS011;168;48.872;9.226;2023-04-16T13:12:24;12.27;;;9.97;;
359;SDS011;168;48.872;9.226;2023-04-16T13:14:52;11.60;;;10.07;;
359;SDS011;168;48.872;9.226;2023-04-16T13:17:19;13.23;;;10.53;;
359;SDS011;168;48.872;9.226;2023-04-16T13:19:46;11.93;;;8.93;;
359;SDS011;168;48.872;9.226;2023-04-16T13:22:15;10.47;;;9.40;;
359;SDS011;168;48.872;9.226;2023-04-16T13:24:42;11.40;;;10.20;;
359;SDS011;168;48.872;9.226;2023-04-16T13:27:10;12.93;;;11.60;;
359;SDS011;168;48.872;9.226;2023-04-16T13:29:40;12.70;;;10.10;;
359;SDS011;168;48.872;9.226;2023-04-16T13:32:07;10.80;;;9.70;;
359;SDS011;168;48.872;9.226;2023-04-16T13:34:38;11.37;;;9.80;;
359;SDS011;168;48.872;9.226;2023-04-16T13:37:05;11.90;;;9.63;;
359;SDS011;168;48.872;9.226;2023-04-16T13:39:34;13.23;;;11.57;;
359;SDS011;168;48.872;9.226;2023-04-16T13:42:01;13.60;;;11.80;;
359;SDS011;168;48.872;9.226;2023-04-16T13:44:29;12.80;;;11.23;;
359;SDS011;168;48.872;9.226;2023-04-16T13:46:56;10.70;;;9.60;;
359;SDS011;168;48.872;9.226;2023-04-16T13:49:24;13.97;;;11.43;;
359;SDS011;168;48.872;9.226;2023-04-16T13:51:52;12.60;;;11.37;;
359;SDS011;168;48.872;9.226;2023-04-16T13:54:19;14.83;;;11.80;;
359;SDS011;168;48.872;9.226;2023-04-16T13:56:48;14.87;;;13.17;;
359;SDS011;168;48.872;9.226;2023-04-16T13:59:16;13.83;;;12.40;;
359;SDS011;168;48.872;9.226;2023-04-16T14:01:43;15.90;;;13.33;;
359;SDS011;168;48.872;9.226;2023-04-16T14:04:11;14.43;;;12.00;;
359;SDS011;168;48.872;9.226;2023-04-16T14:06:38;15.47;;;12.73;;
359;SDS011;168;48.872;9.226;2023-04-16T14:09:05;17.30;;;14.43;;
359;SDS011;168;48.872;9.226;2023-04-16T14:11:35;15.27;;;12.50;;
359;SDS011;168;48.872;9.226;2023-04-16T14:14:03;14.93;;;12.77;;
359;SDS011;168;48.872;9.226;2023-04-16T14:16:31;14.33;;;12.13;;
359;SDS011;168;48.872;9.226;2023-04-16T14:18:58;15.93;;;13.67;;
359;SDS011;168;48.872;9.226;2023-04-16T14:21:25;19.00;;;13.20;;
359;SDS011;168;48.872;9.226;2023-04-16T14:23:53;18.13;;;12.80;;
359;SDS011;168;48.872;9.226;2023-04-16T14:26:20;17.10;;;14.67;;
359;SDS011;168;48.872;9.226;2023-04-16T14:28:50;18.30;;;15.67;;
359;SDS011;168;48.872;9.226;2023-04-16T14:31:19;15.93;;;14.30;;
359;SDS011;168;48.872;9.226;2023-04-16T14:33:46;16.90;;;14.97;;
359;SDS011;168;48.872;9.226;2023-04-16T14:36:14;16.50;;;14.80;;
359;SDS011;168;48.872;9.226;2023-04-16T14:38:41;19.90;;;15.57;;
359;SDS011;168;48.872;9.226;2023-04-16T14:41:09;19.10;;;15.57;;
359;SDS011;168;48.872;9.226;2023-04-16T14:43:37;19.13;;;16.00;;
359;SDS011;168;48.872;9.226;2023-04-16T14:46:05;15.23;;;13.40;;
359;SDS011;168;48.872;9.226;2023-04-16T14:48:34;18.67;;;14.37;;
359;SDS011;168;48.872;9.226;2023-04-16T14:51:02;18.30;;;15.67;;
359;SDS011;168;48.872;9.226;2023-04-16T14:53:29;18.77;;;16.40;;
359;SDS011;168;48.872;9.226;2023-04-16T14:55:57;21.07;;;17.70;;
359;SDS011;168;48.872;9.226;2023-04-16T14:58:24;20.80;;;17.30;;
359;SDS011;168;48.872;9.226;2023-04-16T15:00:52;20.40;;;17.00;;
359;SDS011;168;48.872;9.226;2023-04-16T15:03:19;21.77;;;17.63;;
359;SDS011;168;48.872;9.226;2023-04-16T15:05:48;23.33;;;18.87;;
359;SDS011;168;48.872;9.226;2023-04-16T15:08:19;21.67;;;18.90;;
359;SDS011;168;48.872;9.226;2023-04-16T15:10:47;22.97;;;19.93;;
359;SDS011;168;48.872;9.226;2023-04-16T15:13:15;19.90;;;16.83;;
359;SDS011;168;48.872;9.226;2023-04-16T15:15:42;22.57;;;19.10;;
359;SDS011;168;48.872;9.226;2023-04-16T15:18:10;23.80;;;19.40;;
359;SDS011;168;48.872;9.226;2023-04-16T15:20:37;22.43;;;18.33;;
359;SDS011;168;48.872;9.226;2023-04-16T15:23:06;28.10;;;20.27;;
359;SDS011;168;48.872;9.226;2023-04-16T15:25:34;26.53;;;20.30;;